createdAt,value
2018-02-15T00:00:16.288Z,85.90
2018-02-15T00:02:45.435Z,85.80
2018-02-15T00:05:13.766Z,85.93
2018-02-15T00:07:42.140Z,86.15
2018-02-15T00:10:10.478Z,86.03
2018-02-15T00:12:38.828Z,85.60
2018-02-15T00:15:07.160Z,85.43
2018-02-15T00:17:35.864Z,85.43
2018-02-15T00:20:05.002Z,85.71
2018-02-15T00:22:33.348Z,85.87
2018-02-15T00:25:01.671Z,85.76
2018-02-15T00:27:30.423Z,85.34
2018-02-15T00:29:58.745Z,84.90
2018-02-15T00:32:27.101Z,84.39
2018-02-15T00:34:55.421Z,84.23
2018-02-15T00:37:23.769Z,84.20
2018-02-15T00:39:52.893Z,84.01
2018-02-15T00:42:21.261Z,83.99
2018-02-15T00:44:49.588Z,84.36
2018-02-15T00:47:17.985Z,84.55
2018-02-15T00:49:46.334Z,84.85
2018-02-15T00:52:15.507Z,84.73
2018-02-15T00:54:43.872Z,84.54
2018-02-15T00:57:12.193Z,84.22
2018-02-15T00:59:40.557Z,84.07
2018-02-15T01:02:09.692Z,83.82
2018-02-15T01:04:38.046Z,83.95
2018-02-15T01:07:06.368Z,84.09
2018-02-15T01:09:34.732Z,83.99
2018-02-15T01:12:03.087Z,84.11
2018-02-15T01:14:31.393Z,83.86
2018-02-15T01:16:59.749Z,83.42
2018-02-15T01:19:28.074Z,83.27
2018-02-15T01:21:56.443Z,83.14
2018-02-15T01:24:24.765Z,83.48
2018-02-15T01:26:53.106Z,83.55
2018-02-15T01:29:21.475Z,83.50
2018-02-15T01:31:49.795Z,83.77
2018-02-15T01:34:18.137Z,83.73
2018-02-15T01:36:46.500Z,84.08
2018-02-15T01:39:14.825Z,84.05
2018-02-15T01:41:43.210Z,84.14
2018-02-15T01:44:11.561Z,84.21
2018-02-15T01:46:40.641Z,84.15
2018-02-15T01:49:08.994Z,83.91
2018-02-15T01:51:37.315Z,83.87
2018-02-15T01:54:06.505Z,83.49
2018-02-15T01:56:35.588Z,83.33
2018-02-15T01:59:03.909Z,83.23
2018-02-15T02:01:32.251Z,83.15
2018-02-15T02:04:00.575Z,82.84
2018-02-15T02:06:28.937Z,82.68
2018-02-15T02:08:57.257Z,82.62
2018-02-15T02:11:25.616Z,82.47
2018-02-15T02:13:53.939Z,82.49
2018-02-15T02:16:22.293Z,82.51
2018-02-15T02:18:50.675Z,82.28
2018-02-15T02:21:19.009Z,82.02
2018-02-15T02:23:47.372Z,82.14
2018-02-15T02:26:16.460Z,82.62
2018-02-15T02:28:45.583Z,82.93
2018-02-15T02:31:13.923Z,83.12
2018-02-15T02:33:43.017Z,83.02
2018-02-15T02:36:12.161Z,83.05
2018-02-15T02:38:40.523Z,83.04
2018-02-15T02:41:08.860Z,83.00
2018-02-15T02:43:37.227Z,82.92
2018-02-15T02:46:05.554Z,83.02
2018-02-15T02:48:33.879Z,83.24
2018-02-15T02:51:02.256Z,83.33
2018-02-15T02:53:30.611Z,83.00
2018-02-15T02:55:58.972Z,82.76
2018-02-15T02:58:27.300Z,82.70
2018-02-15T03:00:55.647Z,82.58
2018-02-15T03:03:24.005Z,82.33
2018-02-15T03:05:52.356Z,82.39
2018-02-15T03:08:21.492Z,82.41
2018-02-15T03:10:51.156Z,82.32
2018-02-15T03:13:20.300Z,82.40
2018-02-15T03:15:48.638Z,82.55
2018-02-15T03:18:17.719Z,82.50
2018-02-15T03:20:46.819Z,82.68
2018-02-15T03:23:15.168Z,82.73
2018-02-15T03:25:43.527Z,83.27
2018-02-15T03:28:12.265Z,83.02
2018-02-15T03:30:41.400Z,83.05
2018-02-15T03:33:09.721Z,83.00
2018-02-15T03:35:38.088Z,82.79
2018-02-15T03:38:06.425Z,82.76
2018-02-15T03:40:34.792Z,82.59
2018-02-15T03:43:03.156Z,82.62
2018-02-15T03:45:32.232Z,82.67
2018-02-15T03:48:01.364Z,82.43
2018-02-15T03:50:29.703Z,82.41
2018-02-15T03:52:58.788Z,82.58
2018-02-15T03:55:27.148Z,82.32
2018-02-15T03:57:55.495Z,82.51
2018-02-15T04:00:23.812Z,83.14
2018-02-15T04:02:52.121Z,83.74
2018-02-15T04:05:21.222Z,83.97
2018-02-15T04:07:49.569Z,83.78
2018-02-15T04:10:17.922Z,83.78
2018-02-15T04:12:46.256Z,83.86
2018-02-15T04:15:14.645Z,83.91
2018-02-15T04:17:42.972Z,83.86
2018-02-15T04:20:11.282Z,84.24
2018-02-15T04:22:39.622Z,83.97
2018-02-15T04:25:08.726Z,83.96
2018-02-15T04:27:37.083Z,83.88
2018-02-15T04:30:05.422Z,83.86
2018-02-15T04:32:33.784Z,83.69
2018-02-15T04:35:02.115Z,83.39
2018-02-15T04:37:30.449Z,83.45
2018-02-15T04:39:58.811Z,83.99
2018-02-15T04:42:27.906Z,83.96
2018-02-15T04:44:57.031Z,83.97
2018-02-15T04:47:25.367Z,83.67
2018-02-15T04:49:53.745Z,83.09
2018-02-15T04:52:22.064Z,82.75
2018-02-15T04:54:50.377Z,82.56
2018-02-15T04:57:18.752Z,82.47
2018-02-15T04:59:47.119Z,82.55
2018-02-15T05:02:15.487Z,82.78
2018-02-15T05:04:43.839Z,82.83
2018-02-15T05:07:12.166Z,82.76
2018-02-15T05:09:40.672Z,82.95
2018-02-15T05:12:08.999Z,83.09
2018-02-15T05:14:37.371Z,83.19
2018-02-15T05:17:05.727Z,83.01
2018-02-15T05:19:34.075Z,83.47
2018-02-15T05:22:02.440Z,83.23
2018-02-15T05:24:30.775Z,83.17
2018-02-15T05:26:59.127Z,83.13
2018-02-15T05:29:28.247Z,82.92
2018-02-15T05:31:56.603Z,82.85
2018-02-15T05:34:25.723Z,82.54
2018-02-15T05:36:54.043Z,82.53
2018-02-15T05:39:22.399Z,82.75
2018-02-15T05:41:50.828Z,82.63
2018-02-15T05:44:19.925Z,82.73
2018-02-15T05:46:49.037Z,82.65
2018-02-15T05:49:17.355Z,82.71
2018-02-15T05:51:45.739Z,82.57
2018-02-15T05:54:14.091Z,82.51
2018-02-15T05:56:42.450Z,82.36
2018-02-15T05:59:10.799Z,82.27
2018-02-15T06:01:39.925Z,82.10
2018-02-15T06:04:08.269Z,82.28
2018-02-15T06:06:38.339Z,82.27
2018-02-15T06:09:06.710Z,82.30
2018-02-15T06:11:35.082Z,82.91
2018-02-15T06:14:03.446Z,82.83
2018-02-15T06:16:31.775Z,82.57
2018-02-15T06:19:00.142Z,82.38
2018-02-15T06:21:28.460Z,82.51
2018-02-15T06:23:56.813Z,82.26
2018-02-15T06:26:25.154Z,81.81
2018-02-15T06:28:53.491Z,81.19
2018-02-15T06:31:22.622Z,81.16
2018-02-15T06:33:50.994Z,81.23
2018-02-15T06:36:19.339Z,81.14
2018-02-15T06:38:48.438Z,81.39
2018-02-15T06:41:17.566Z,81.32
2018-02-15T06:43:45.908Z,81.16
2018-02-15T06:46:15.000Z,80.83
2018-02-15T06:48:44.122Z,80.52
2018-02-15T06:51:12.466Z,80.68
2018-02-15T06:53:41.590Z,81.08
2018-02-15T06:56:10.543Z,80.64
2018-02-15T06:58:38.868Z,80.29
2018-02-15T07:01:07.225Z,79.93
2018-02-15T07:03:37.072Z,79.72
2018-02-15T07:06:05.396Z,79.36
2018-02-15T07:08:33.774Z,78.79
2018-02-15T07:11:02.101Z,78.53
2018-02-15T07:13:30.462Z,78.27
2018-02-15T07:15:58.804Z,78.10
2018-02-15T07:18:27.108Z,77.99
2018-02-15T07:20:56.230Z,77.76
2018-02-15T07:23:24.570Z,77.57
2018-02-15T07:25:53.707Z,77.53
2018-02-15T07:28:22.034Z,77.54
2018-02-15T07:30:51.144Z,77.24
2018-02-15T07:33:20.254Z,76.85
2018-02-15T07:35:48.608Z,76.21
2018-02-15T07:38:17.700Z,75.24
2018-02-15T07:40:46.080Z,74.36
2018-02-15T07:43:15.164Z,74.11
2018-02-15T07:45:43.482Z,74.08
2018-02-15T07:48:11.822Z,73.98
2018-02-15T07:50:40.138Z,73.65
2018-02-15T07:53:08.478Z,73.46
2018-02-15T07:55:36.836Z,73.46
2018-02-15T07:58:05.140Z,73.59
2018-02-15T08:00:34.258Z,73.79
2018-02-15T08:03:02.574Z,73.67
2018-02-15T08:05:30.916Z,72.95
2018-02-15T08:07:59.264Z,72.26
2018-02-15T08:10:28.344Z,71.75
2018-02-15T08:12:56.678Z,71.78
2018-02-15T08:15:25.026Z,71.10
2018-02-15T08:17:53.779Z,71.66
2018-02-15T08:20:23.511Z,72.82
2018-02-15T08:22:52.627Z,72.91
2018-02-15T08:25:21.746Z,72.22
2018-02-15T08:27:50.087Z,72.07
2018-02-15T08:30:19.244Z,72.20
2018-02-15T08:32:47.594Z,71.81
2018-02-15T08:35:15.951Z,70.86
2018-02-15T08:37:45.059Z,70.12
2018-02-15T08:40:13.378Z,69.44
2018-02-15T08:42:41.754Z,69.15
2018-02-15T08:45:10.070Z,68.93
2018-02-15T08:47:39.710Z,68.29
2018-02-15T08:50:08.022Z,68.24
2018-02-15T08:52:36.385Z,68.54
2018-02-15T08:55:04.707Z,68.79
2018-02-15T08:57:33.812Z,69.48
2018-02-15T09:00:02.150Z,69.81
2018-02-15T09:02:30.498Z,70.27
2018-02-15T09:04:58.807Z,71.01
2018-02-15T09:07:27.164Z,71.14
2018-02-15T09:09:55.597Z,71.31
2018-02-15T09:12:24.672Z,71.35
2018-02-15T09:14:53.806Z,71.63
2018-02-15T09:17:22.140Z,71.72
2018-02-15T09:19:50.841Z,71.59
2018-02-15T09:22:19.944Z,71.64
2018-02-15T09:24:49.068Z,71.80
2018-02-15T09:27:17.418Z,71.98
2018-02-15T09:29:45.737Z,72.11
2018-02-15T09:32:14.060Z,72.10
2018-02-15T09:34:43.150Z,72.36
2018-02-15T09:37:12.251Z,72.25
2018-02-15T09:39:41.335Z,72.03
2018-02-15T09:42:09.693Z,71.39
2018-02-15T09:44:38.033Z,71.31
2018-02-15T09:47:06.406Z,71.16
2018-02-15T09:49:34.769Z,71.07
2018-02-15T09:52:03.076Z,70.90
2018-02-15T09:54:31.429Z,70.05
2018-02-15T09:56:59.781Z,69.69
2018-02-15T09:59:28.102Z,69.37
2018-02-15T10:01:56.469Z,69.34
2018-02-15T10:04:24.797Z,68.88
2018-02-15T10:06:53.170Z,68.93
2018-02-15T10:09:21.483Z,68.69
2018-02-15T10:11:51.013Z,68.77
2018-02-15T10:14:19.330Z,68.44
2018-02-15T10:16:47.690Z,67.89
2018-02-15T10:19:16.016Z,67.71
2018-02-15T10:21:45.148Z,66.94
2018-02-15T10:24:13.469Z,66.83
2018-02-15T10:26:41.817Z,66.94
2018-02-15T10:29:10.141Z,66.28
2018-02-15T10:31:39.327Z,66.02
2018-02-15T10:34:07.674Z,66.16
2018-02-15T10:36:36.064Z,65.19
2018-02-15T10:39:04.417Z,64.44
2018-02-15T10:41:32.748Z,64.30
2018-02-15T10:44:01.868Z,64.00
2018-02-15T10:46:30.269Z,63.98
2018-02-15T10:48:58.576Z,63.78
2018-02-15T10:51:26.901Z,63.70
2018-02-15T10:53:55.269Z,64.18
2018-02-15T10:56:23.579Z,63.88
2018-02-15T10:58:51.917Z,63.67
2018-02-15T11:01:26.571Z,63.45
2018-02-15T11:04:00.316Z,63.19
2018-02-15T11:06:28.629Z,63.04
2018-02-15T11:08:56.953Z,62.85
2018-02-15T11:11:25.307Z,62.70
2018-02-15T11:13:53.651Z,62.58
2018-02-15T11:16:22.741Z,61.68
2018-02-15T11:18:51.869Z,61.08
2018-02-15T11:21:21.316Z,60.13
2018-02-15T11:23:50.068Z,59.38
2018-02-15T11:26:18.428Z,58.50
2018-02-15T11:28:46.735Z,57.47
2018-02-15T11:31:15.070Z,57.58
2018-02-15T11:33:44.300Z,56.94
2018-02-15T11:36:12.515Z,56.75
2018-02-15T11:38:40.880Z,56.53
2018-02-15T11:41:09.192Z,56.66
2018-02-15T11:43:38.308Z,56.42
2018-02-15T11:46:06.637Z,56.30
2018-02-15T11:48:34.944Z,56.30
2018-02-15T11:51:03.282Z,55.71
2018-02-15T11:53:31.604Z,55.42
2018-02-15T11:55:59.950Z,54.62
2018-02-15T11:58:28.276Z,53.93
2018-02-15T12:00:56.604Z,53.84
2018-02-15T12:03:24.961Z,52.96
2018-02-15T12:05:53.288Z,51.88
2018-02-15T12:08:21.630Z,51.50
2018-02-15T12:10:49.981Z,50.66
2018-02-15T12:13:18.350Z,50.32
2018-02-15T12:15:46.685Z,49.28
2018-02-15T12:18:15.773Z,48.95
2018-02-15T12:20:44.907Z,48.25
2018-02-15T12:23:13.227Z,47.74
2018-02-15T12:25:41.549Z,46.41
2018-02-15T12:28:09.891Z,46.90
2018-02-15T12:30:38.203Z,47.60
2018-02-15T12:33:06.568Z,47.48
2018-02-15T12:35:35.715Z,47.20
2018-02-15T12:38:04.052Z,47.68
2018-02-15T12:40:32.368Z,47.62
2018-02-15T12:43:00.724Z,47.63
2018-02-15T12:45:29.076Z,47.09
2018-02-15T12:47:58.196Z,47.26
2018-02-15T12:50:26.524Z,46.82
2018-02-15T12:52:55.684Z,47.13
2018-02-15T12:55:23.974Z,47.58
2018-02-15T12:57:52.320Z,47.20
2018-02-15T13:00:20.679Z,47.00
2018-02-15T13:02:49.004Z,47.02
2018-02-15T13:05:17.358Z,47.50
2018-02-15T13:07:45.675Z,47.99
2018-02-15T13:10:14.040Z,47.94
2018-02-15T13:13:00.118Z,47.70
2018-02-15T13:15:46.152Z,47.99
2018-02-15T13:18:15.297Z,48.14
2018-02-15T13:20:43.633Z,48.21
2018-02-15T13:23:12.814Z,47.75
2018-02-15T13:25:42.004Z,47.36
2018-02-15T13:28:28.110Z,47.85
2018-02-15T13:30:56.441Z,48.15
2018-02-15T13:33:24.789Z,48.45
2018-02-15T13:35:53.148Z,48.86
2018-02-15T13:38:21.503Z,48.58
2018-02-15T13:40:49.842Z,48.48
2018-02-15T13:43:18.184Z,48.25
2018-02-15T13:45:47.268Z,48.38
2018-02-15T13:48:15.628Z,48.19
2018-02-15T13:50:43.965Z,48.12
2018-02-15T13:53:12.312Z,47.52
2018-02-15T13:55:41.407Z,47.86
2018-02-15T13:58:10.547Z,47.94
2018-02-15T14:00:38.864Z,48.07
2018-02-15T14:03:07.227Z,47.53
2018-02-15T14:05:35.572Z,47.91
2018-02-15T14:08:03.891Z,47.84
2018-02-15T14:10:32.306Z,47.86
2018-02-15T14:13:00.620Z,48.56
2018-02-15T14:15:28.947Z,48.21
2018-02-15T14:17:58.072Z,48.04
2018-02-15T14:20:26.382Z,48.54
2018-02-15T14:22:54.741Z,48.36
2018-02-15T14:25:23.041Z,48.73
2018-02-15T14:27:51.395Z,48.88
2018-02-15T14:30:19.823Z,48.77
2018-02-15T14:32:48.165Z,48.63
2018-02-15T14:35:16.491Z,48.36
2018-02-15T14:37:44.832Z,48.69
2018-02-15T14:40:13.937Z,48.65
2018-02-15T14:42:42.281Z,48.74
2018-02-15T14:45:10.603Z,48.93
2018-02-15T14:47:39.731Z,48.83
2018-02-15T14:50:08.054Z,48.87
2018-02-15T14:52:36.431Z,48.75
2018-02-15T14:55:04.753Z,48.72
2018-02-15T14:57:33.075Z,48.85
2018-02-15T15:00:01.433Z,48.93
2018-02-15T15:02:29.741Z,49.14
2018-02-15T15:04:58.106Z,49.34
2018-02-15T15:07:26.455Z,49.73
2018-02-15T15:09:54.795Z,49.74
2018-02-15T15:12:23.173Z,49.16
2018-02-15T15:14:51.523Z,49.28
2018-02-15T15:17:19.818Z,49.64
2018-02-15T15:19:48.170Z,49.59
2018-02-15T15:22:16.517Z,49.18
2018-02-15T15:24:44.909Z,49.15
2018-02-15T15:27:13.221Z,49.37
2018-02-15T15:29:42.324Z,49.49
2018-02-15T15:32:10.671Z,49.66
2018-02-15T15:34:38.977Z,49.46
2018-02-15T15:37:07.359Z,50.06
2018-02-15T15:39:35.688Z,49.40
2018-02-15T15:42:04.012Z,49.27
2018-02-15T15:44:32.367Z,49.62
2018-02-15T15:47:00.743Z,49.79
2018-02-15T15:49:29.197Z,49.94
2018-02-15T15:51:57.558Z,50.30
2018-02-15T15:54:25.875Z,50.26
2018-02-15T15:56:54.211Z,50.41
2018-02-15T15:59:22.580Z,50.87
2018-02-15T16:01:51.067Z,50.26
2018-02-15T16:04:19.390Z,50.73
2018-02-15T16:06:47.755Z,50.99
2018-02-15T16:09:16.129Z,50.91
2018-02-15T16:11:45.796Z,50.52
2018-02-15T16:14:14.926Z,50.76
2018-02-15T16:16:43.252Z,50.46
2018-02-15T16:19:11.910Z,50.93
2018-02-15T16:21:40.334Z,51.32
2018-02-15T16:24:10.254Z,51.17
2018-02-15T16:26:39.366Z,51.29
2018-02-15T16:29:07.723Z,51.38
2018-02-15T16:31:37.734Z,51.09
2018-02-15T16:34:06.828Z,51.49
2018-02-15T16:36:35.962Z,51.09
2018-02-15T16:39:04.265Z,51.33
2018-02-15T16:41:32.580Z,51.71
2018-02-15T16:44:01.714Z,51.89
2018-02-15T16:46:30.480Z,52.05
2018-02-15T16:48:59.327Z,51.85
2018-02-15T16:51:27.708Z,52.04
2018-02-15T16:53:56.114Z,51.95
2018-02-15T16:56:25.206Z,52.11
2018-02-15T16:58:53.586Z,52.03
2018-02-15T17:01:22.713Z,52.46
2018-02-15T17:03:51.863Z,52.56
2018-02-15T17:06:20.250Z,52.98
2018-02-15T17:08:50.104Z,53.20
2018-02-15T17:11:18.456Z,52.85
2018-02-15T17:13:47.067Z,53.15
2018-02-15T17:16:15.792Z,53.20
2018-02-15T17:18:45.903Z,53.20
2018-02-15T17:21:14.241Z,52.95
2018-02-15T17:23:42.642Z,53.29
2018-02-15T17:26:11.169Z,53.46
2018-02-15T17:28:39.571Z,53.34
2018-02-15T17:31:07.895Z,53.77
2018-02-15T17:33:36.538Z,54.02
2018-02-15T17:36:05.042Z,54.28
2018-02-15T17:38:33.709Z,54.20
2018-02-15T17:41:02.546Z,54.12
2018-02-15T17:43:31.247Z,54.33
2018-02-15T17:46:00.370Z,54.25
2018-02-15T17:48:30.106Z,54.51
2018-02-15T17:50:58.900Z,54.20
2018-02-15T17:53:27.318Z,54.29
2018-02-15T17:55:55.795Z,54.26
2018-02-15T17:58:25.802Z,54.34
2018-02-15T18:00:54.442Z,54.41
2018-02-15T18:03:23.921Z,54.01
2018-02-15T18:05:52.353Z,54.38
2018-02-15T18:08:20.706Z,54.61
2018-02-15T18:10:49.232Z,54.59
2018-02-15T18:13:25.508Z,54.51
2018-02-15T18:15:55.582Z,54.30
2018-02-15T18:18:24.154Z,54.55
2018-02-15T18:20:56.106Z,54.76
2018-02-15T18:23:24.629Z,54.56
2018-02-15T18:25:53.809Z,54.81
2018-02-15T18:28:22.298Z,54.86
2018-02-15T18:30:50.796Z,54.83
2018-02-15T18:33:21.254Z,54.52
2018-02-15T18:35:50.177Z,54.64
2018-02-15T18:38:18.680Z,54.77
2018-02-15T18:40:47.428Z,54.88
2018-02-15T18:43:15.878Z,54.88
2018-02-15T18:45:45.221Z,54.40
2018-02-15T18:48:13.538Z,54.46
2018-02-15T18:50:41.964Z,54.54
2018-02-15T18:53:10.338Z,54.54
2018-02-15T18:55:39.602Z,54.78
2018-02-15T18:58:09.317Z,55.03
2018-02-15T19:00:38.790Z,54.62
2018-02-15T19:03:07.159Z,54.70
2018-02-15T19:05:35.842Z,54.67
2018-02-15T19:08:04.178Z,54.64
2018-02-15T19:10:32.558Z,54.43
2018-02-15T19:13:00.885Z,54.62
2018-02-15T19:15:29.249Z,54.67
2018-02-15T19:17:57.594Z,54.41
2018-02-15T19:20:25.953Z,53.95
2018-02-15T19:22:55.067Z,54.21
2018-02-15T19:25:23.489Z,54.17
2018-02-15T19:27:52.490Z,54.54
2018-02-15T19:30:22.809Z,54.18
2018-02-15T19:32:51.128Z,54.57
2018-02-15T19:35:20.895Z,54.46
2018-02-15T19:37:50.026Z,54.28
2018-02-15T19:40:19.145Z,54.27
2018-02-15T19:42:47.483Z,54.31
2018-02-15T19:45:15.920Z,54.29
2018-02-15T19:47:44.473Z,54.29
2018-02-15T19:50:13.571Z,54.43
2018-02-15T19:52:42.002Z,54.10
2018-02-15T19:55:10.356Z,54.45
2018-02-15T19:57:38.751Z,54.23
2018-02-15T20:00:07.077Z,54.31
2018-02-15T20:02:36.378Z,54.48
2018-02-15T20:05:06.352Z,54.59
2018-02-15T20:07:35.118Z,54.91
2018-02-15T20:10:04.025Z,55.18
2018-02-15T20:12:32.460Z,55.21
2018-02-15T20:15:00.880Z,55.63
2018-02-15T20:17:29.263Z,56.00
2018-02-15T20:20:03.302Z,56.31
2018-02-15T20:22:31.654Z,56.53
2018-02-15T20:25:00.007Z,56.87
2018-02-15T20:27:33.798Z,58.90
2018-02-15T20:30:02.158Z,60.09
2018-02-15T20:32:31.373Z,60.96
2018-02-15T20:34:59.736Z,61.58
2018-02-15T20:37:35.953Z,61.79
2018-02-15T20:40:09.903Z,62.02
2018-02-15T20:42:39.784Z,63.53
2018-02-15T20:45:09.355Z,64.15
2018-02-15T20:47:37.724Z,65.06
2018-02-15T20:50:12.468Z,65.43
2018-02-15T20:52:54.763Z,65.61
2018-02-15T20:55:28.709Z,65.72
2018-02-15T20:57:57.115Z,66.05
2018-02-15T21:00:27.107Z,66.67
2018-02-15T21:02:55.472Z,66.81
2018-02-15T21:05:23.824Z,66.75
2018-02-15T21:07:52.170Z,66.88
2018-02-15T21:10:20.917Z,66.80
2018-02-15T21:12:49.360Z,66.91
2018-02-15T21:15:17.735Z,66.75
2018-02-15T21:17:46.110Z,66.86
2018-02-15T21:20:14.489Z,67.29
2018-02-15T21:22:42.840Z,67.27
2018-02-15T21:25:11.914Z,67.19
2018-02-15T21:27:40.262Z,67.26
2018-02-15T21:30:08.601Z,67.23
2018-02-15T21:32:37.728Z,67.31
2018-02-15T21:35:06.067Z,67.18
2018-02-15T21:37:34.480Z,67.22
2018-02-15T21:40:03.613Z,67.21
2018-02-15T21:42:31.936Z,67.06
2018-02-15T21:45:00.364Z,67.08
2018-02-15T21:47:28.689Z,67.24
2018-02-15T21:49:57.039Z,66.97
2018-02-15T21:52:25.364Z,67.36
2018-02-15T21:54:54.440Z,67.34
2018-02-15T21:57:22.797Z,67.11
2018-02-15T21:59:51.916Z,67.03
2018-02-15T22:02:20.287Z,67.04
2018-02-15T22:04:48.723Z,67.04
2018-02-15T22:07:17.034Z,67.27
2018-02-15T22:09:46.161Z,67.17
2018-02-15T22:12:14.506Z,67.34
2018-02-15T22:14:43.630Z,67.85
2018-02-15T22:17:11.943Z,67.79
2018-02-15T22:19:40.611Z,67.43
2018-02-15T22:22:08.975Z,67.34
2018-02-15T22:24:37.397Z,67.25
2018-02-15T22:27:05.743Z,67.42
2018-02-15T22:29:35.027Z,67.62
2018-02-15T22:32:03.477Z,67.93
2018-02-15T22:34:32.591Z,67.78
2018-02-15T22:37:00.913Z,67.45
2018-02-15T22:39:29.839Z,67.19
2018-02-15T22:41:59.729Z,67.15
2018-02-15T22:44:28.069Z,66.78
2018-02-15T22:46:56.379Z,66.59
2018-02-15T22:49:24.689Z,66.48
2018-02-15T22:51:53.821Z,66.67
2018-02-15T22:54:22.147Z,66.65
2018-02-15T22:56:50.503Z,66.57
2018-02-15T22:59:18.852Z,66.49
2018-02-15T23:01:47.187Z,66.43
2018-02-15T23:04:15.967Z,66.43
2018-02-15T23:06:45.115Z,66.19
2018-02-15T23:09:13.540Z,66.17
2018-02-15T23:11:42.681Z,66.35
2018-02-15T23:14:11.533Z,66.36
2018-02-15T23:16:40.641Z,66.18
2018-02-15T23:19:09.021Z,66.32
2018-02-15T23:21:37.363Z,66.40
2018-02-15T23:24:05.736Z,66.54
2018-02-15T23:26:34.071Z,66.71
2018-02-15T23:29:03.177Z,66.66
2018-02-15T23:31:31.560Z,66.61
2018-02-15T23:33:59.902Z,66.50
2018-02-15T23:36:29.028Z,66.24
2018-02-15T23:38:57.406Z,66.08
2018-02-15T23:41:25.768Z,66.22
2018-02-15T23:43:54.150Z,66.22
2018-02-15T23:46:22.504Z,66.31
2018-02-15T23:48:50.896Z,66.32
2018-02-15T23:51:19.247Z,66.39
2018-02-15T23:53:48.393Z,66.42
2018-02-15T23:56:16.711Z,66.24
2018-02-15T23:58:45.877Z,66.17
